createdAt,value
2019-04-27T00:01:24.410Z,6.83
2019-04-27T00:09:28.077Z,6.40
2019-04-27T00:12:03.484Z,6.10
2019-04-27T00:14:29.787Z,6.10
2019-04-27T00:17:14.804Z,6.50
2019-04-27T00:19:48.452Z,5.27
2019-04-27T00:22:33.484Z,6.20
2019-04-27T00:24:59.789Z,6.23
2019-04-27T00:27:26.045Z,5.30
2019-04-27T00:29:53.548Z,6.43
2019-04-27T00:32:20.060Z,5.83
2019-04-27T00:34:46.283Z,5.73
2019-04-27T00:37:14.362Z,6.13
2019-04-27T00:39:43.312Z,6.63
2019-04-27T00:42:10.224Z,5.73
2019-04-27T00:44:36.400Z,5.57
2019-04-27T00:47:04.608Z,5.73
2019-04-27T00:49:30.758Z,5.47
2019-04-27T00:51:56.915Z,5.90
2019-04-27T00:54:23.761Z,5.30
2019-04-27T00:57:10.374Z,5.57
2019-04-27T00:59:53.285Z,5.60
2019-04-27T01:02:23.118Z,5.87
2019-04-27T01:04:49.551Z,5.63
2019-04-27T01:07:15.952Z,5.77
2019-04-27T01:09:42.875Z,6.00
2019-04-27T01:12:09.893Z,6.43
2019-04-27T01:14:36.082Z,6.43
2019-04-27T01:17:02.466Z,6.20
2019-04-27T01:19:29.022Z,6.13
2019-04-27T01:21:55.216Z,5.57
2019-04-27T01:24:21.389Z,6.30
2019-04-27T01:27:04.325Z,6.03
2019-04-27T01:29:32.409Z,5.87
2019-04-27T01:31:59.013Z,6.33
2019-04-27T01:34:25.163Z,6.80
2019-04-27T01:36:51.336Z,6.73
2019-04-27T01:39:18.880Z,6.77
2019-04-27T01:41:45.499Z,6.90
2019-04-27T01:44:11.666Z,6.13
2019-04-27T01:46:39.597Z,5.93
2019-04-27T01:49:06.049Z,5.67
2019-04-27T01:51:32.246Z,6.13
2019-04-27T01:53:59.392Z,5.87
2019-04-27T01:56:25.908Z,6.10
2019-04-27T01:58:52.190Z,6.80
2019-04-27T02:01:20.762Z,5.93
2019-04-27T02:04:05.794Z,6.10
2019-04-27T02:06:32.052Z,6.43
2019-04-27T02:08:59.545Z,6.63
2019-04-27T02:11:25.939Z,6.77
2019-04-27T02:13:52.120Z,6.33
2019-04-27T02:16:18.801Z,6.67
2019-04-27T02:18:45.180Z,7.47
2019-04-27T02:21:11.341Z,7.07
2019-04-27T02:23:39.084Z,5.63
2019-04-27T02:26:05.624Z,6.50
2019-04-27T02:28:39.519Z,6.43
2019-04-27T02:31:09.856Z,6.50
2019-04-27T02:33:55.809Z,6.20
2019-04-27T02:36:21.984Z,6.97
2019-04-27T02:38:49.156Z,6.00
2019-04-27T02:41:15.635Z,7.03
2019-04-27T02:43:46.498Z,6.10
2019-04-27T02:46:12.796Z,6.60
2019-04-27T02:48:52.969Z,6.47
2019-04-27T02:51:10.023Z,6.13
2019-04-27T02:53:55.475Z,7.37
2019-04-27T02:56:22.467Z,6.90
2019-04-27T02:58:49.638Z,6.73
2019-04-27T03:01:16.118Z,6.50
2019-04-27T03:03:42.715Z,6.63
2019-04-27T03:06:09.814Z,6.13
2019-04-27T03:08:36.736Z,6.77
2019-04-27T03:11:03.037Z,6.40
2019-04-27T03:13:51.724Z,6.70
2019-04-27T03:16:20.306Z,6.77
2019-04-27T03:19:09.737Z,6.27
2019-04-27T03:21:23.629Z,7.77
2019-04-27T03:23:50.191Z,8.23
2019-04-27T03:26:21.566Z,7.50
2019-04-27T03:28:50.317Z,7.50
2019-04-27T03:31:16.138Z,7.73
2019-04-27T03:33:43.313Z,8.00
2019-04-27T03:36:12.998Z,8.20
2019-04-27T03:38:39.645Z,7.83
2019-04-27T03:41:05.846Z,7.37
2019-04-27T03:43:32.524Z,8.13
2019-04-27T03:46:00.530Z,7.73
2019-04-27T03:48:29.057Z,7.47
2019-04-27T03:51:02.611Z,6.77
2019-04-27T03:53:30.669Z,7.13
2019-04-27T03:56:00.002Z,7.17
2019-04-27T03:58:34.932Z,10.23
2019-04-27T04:01:01.081Z,6.63
2019-04-27T04:03:29.741Z,8.17
2019-04-27T04:05:55.375Z,8.87
2019-04-27T04:08:21.545Z,8.10
2019-04-27T04:11:01.719Z,6.83
2019-04-27T04:13:35.414Z,6.57
2019-04-27T04:16:07.344Z,7.47
2019-04-27T04:18:33.480Z,6.97
2019-04-27T04:21:00.418Z,6.50
2019-04-27T04:23:26.836Z,6.43
2019-04-27T04:25:53.003Z,6.97
2019-04-27T04:28:19.951Z,7.27
2019-04-27T04:30:46.574Z,6.57
2019-04-27T04:33:12.762Z,7.30
2019-04-27T04:35:39.757Z,6.27
2019-04-27T04:38:06.420Z,5.93
2019-04-27T04:40:37.160Z,6.17
2019-04-27T04:43:10.533Z,6.10
2019-04-27T04:45:40.260Z,6.30
2019-04-27T04:48:09.828Z,6.53
2019-04-27T04:50:36.211Z,6.50
2019-04-27T04:53:02.393Z,6.03
2019-04-27T04:55:30.679Z,6.03
2019-04-27T04:57:56.622Z,6.40
2019-04-27T05:00:22.905Z,6.43
2019-04-27T05:02:49.293Z,6.10
2019-04-27T05:05:15.572Z,6.07
2019-04-27T05:07:41.800Z,6.43
2019-04-27T05:10:09.030Z,5.67
2019-04-27T05:12:35.530Z,5.87
2019-04-27T05:15:01.818Z,6.07
2019-04-27T05:17:29.530Z,5.60
2019-04-27T05:19:56.373Z,5.53
2019-04-27T05:22:22.571Z,5.50
2019-04-27T05:24:50.643Z,6.00
2019-04-27T05:27:16.800Z,6.30
2019-04-27T05:29:43.009Z,5.77
2019-04-27T05:32:09.265Z,5.70
2019-04-27T05:34:35.444Z,5.07
2019-04-27T05:37:01.658Z,5.73
2019-04-27T05:39:29.782Z,5.43
2019-04-27T05:41:55.888Z,5.67
2019-04-27T05:44:24.090Z,5.33
2019-04-27T05:46:52.166Z,5.63
2019-04-27T05:49:23.034Z,4.57
2019-04-27T05:51:50.147Z,5.40
2019-04-27T05:54:16.506Z,5.53
2019-04-27T05:56:42.673Z,4.37
2019-04-27T05:59:09.261Z,4.97
2019-04-27T06:01:35.809Z,5.07
2019-04-27T06:04:02.097Z,5.20
2019-04-27T06:06:29.553Z,4.33
2019-04-27T06:08:56.373Z,5.00
2019-04-27T06:11:22.963Z,4.83
2019-04-27T06:13:49.366Z,4.63
2019-04-27T06:16:15.542Z,4.87
2019-04-27T06:18:41.830Z,5.20
2019-04-27T06:21:09.611Z,5.00
2019-04-27T06:23:36.180Z,4.63
2019-04-27T06:26:02.374Z,4.77
2019-04-27T06:28:29.322Z,4.33
2019-04-27T06:30:56.631Z,5.07
2019-04-27T06:33:32.020Z,5.70
2019-04-27T06:35:50.903Z,4.77
2019-04-27T06:38:17.054Z,5.27
2019-04-27T06:40:43.235Z,4.83
2019-04-27T06:43:09.421Z,5.27
2019-04-27T06:45:35.598Z,5.30
2019-04-27T06:48:01.771Z,5.60
2019-04-27T06:50:29.477Z,5.13
2019-04-27T06:52:55.838Z,5.03
2019-04-27T06:55:22.097Z,5.67
2019-04-27T06:57:49.085Z,5.97
2019-04-27T07:00:16.062Z,5.17
2019-04-27T07:02:42.238Z,5.40
2019-04-27T07:05:09.065Z,4.73
2019-04-27T07:07:35.395Z,5.67
2019-04-27T07:10:04.219Z,5.00
2019-04-27T07:12:30.407Z,4.47
2019-04-27T07:14:56.710Z,5.00
2019-04-27T07:17:22.865Z,5.03
2019-04-27T07:19:49.694Z,5.17
2019-04-27T07:22:16.115Z,4.57
2019-04-27T07:24:42.480Z,5.07
2019-04-27T07:27:09.369Z,4.97
2019-04-27T07:29:35.732Z,4.80
2019-04-27T07:32:01.908Z,5.53
2019-04-27T07:34:28.657Z,4.97
2019-04-27T07:36:56.168Z,4.40
2019-04-27T07:39:22.339Z,4.40
2019-04-27T07:41:48.895Z,3.67
2019-04-27T07:44:19.619Z,4.40
2019-04-27T07:46:47.687Z,4.30
2019-04-27T07:49:13.906Z,4.97
2019-04-27T07:51:40.059Z,4.53
2019-04-27T07:54:06.244Z,4.63
2019-04-27T07:56:32.453Z,4.43
2019-04-27T07:58:59.563Z,4.60
2019-04-27T08:01:25.996Z,4.70
2019-04-27T08:03:52.185Z,5.03
2019-04-27T08:06:18.958Z,4.70
2019-04-27T08:08:45.231Z,4.77
2019-04-27T08:11:11.510Z,4.87
2019-04-27T08:13:39.002Z,5.17
2019-04-27T08:16:05.822Z,4.00
2019-04-27T08:18:32.028Z,4.73
2019-04-27T08:20:59.091Z,4.57
2019-04-27T08:23:25.494Z,4.83
2019-04-27T08:25:51.711Z,4.23
2019-04-27T08:28:19.776Z,4.90
2019-04-27T08:31:04.217Z,4.23
2019-04-27T08:33:30.490Z,4.80
2019-04-27T08:35:56.641Z,4.70
2019-04-27T08:38:23.760Z,4.60
2019-04-27T08:40:49.954Z,5.20
2019-04-27T08:43:16.144Z,4.60
2019-04-27T08:45:42.340Z,4.33
2019-04-27T08:48:09.341Z,5.60
2019-04-27T08:50:37.843Z,4.83
2019-04-27T08:53:03.815Z,4.70
2019-04-27T08:55:29.997Z,4.87
2019-04-27T08:57:56.186Z,4.47
2019-04-27T09:00:22.382Z,4.07
2019-04-27T09:02:50.261Z,4.37
2019-04-27T09:05:19.275Z,4.90
2019-04-27T09:07:54.150Z,4.50
2019-04-27T09:10:25.625Z,4.33
2019-04-27T09:13:06.128Z,4.90
2019-04-27T09:18:24.678Z,4.77
2019-04-27T09:20:55.502Z,4.53
2019-04-27T09:23:21.661Z,4.40
2019-04-27T09:25:49.625Z,5.00
2019-04-27T09:28:16.132Z,4.77
2019-04-27T09:30:42.401Z,4.30
2019-04-27T09:33:08.610Z,4.10
2019-04-27T09:35:35.636Z,4.13
2019-04-27T09:38:02.122Z,4.30
2019-04-27T09:40:28.446Z,4.50
2019-04-27T09:42:54.620Z,4.93
2019-04-27T09:45:20.789Z,4.57
2019-04-27T09:47:47.002Z,4.33
2019-04-27T09:50:13.444Z,4.80
2019-04-27T09:52:39.596Z,3.53
2019-04-27T09:55:06.724Z,4.53
2019-04-27T09:57:34.174Z,4.07
2019-04-27T10:00:00.340Z,4.30
2019-04-27T10:02:26.952Z,4.40
2019-04-27T10:04:53.414Z,4.13
2019-04-27T10:07:19.567Z,4.10
2019-04-27T10:09:47.315Z,3.90
2019-04-27T10:12:13.801Z,4.07
2019-04-27T10:14:40.900Z,4.13
2019-04-27T10:17:07.096Z,3.83
2019-04-27T10:19:33.366Z,3.93
2019-04-27T10:21:59.536Z,4.10
2019-04-27T10:24:25.855Z,3.67
2019-04-27T10:26:52.027Z,3.53
2019-04-27T10:29:18.183Z,4.23
2019-04-27T10:31:46.353Z,3.97
2019-04-27T10:34:12.549Z,3.70
2019-04-27T10:36:38.704Z,3.80
2019-04-27T10:39:06.924Z,3.47
2019-04-27T10:41:33.096Z,3.63
2019-04-27T10:43:59.262Z,3.43
2019-04-27T10:46:25.846Z,3.37
2019-04-27T10:48:52.040Z,3.10
2019-04-27T10:51:18.205Z,3.60
2019-04-27T10:53:45.664Z,3.40
2019-04-27T10:56:12.004Z,3.67
2019-04-27T10:58:38.157Z,3.50
2019-04-27T11:01:06.263Z,3.97
2019-04-27T11:03:52.293Z,3.30
2019-04-27T11:06:20.392Z,4.10
2019-04-27T11:08:48.249Z,3.67
2019-04-27T11:11:14.735Z,3.70
2019-04-27T11:13:40.929Z,3.87
2019-04-27T11:16:07.589Z,3.37
2019-04-27T11:18:33.775Z,3.67
2019-04-27T11:20:59.986Z,3.70
2019-04-27T11:23:26.204Z,3.73
2019-04-27T11:25:52.418Z,3.40
2019-04-27T11:28:18.609Z,3.50
2019-04-27T11:30:44.762Z,2.83
2019-04-27T11:33:10.945Z,3.17
2019-04-27T11:35:39.056Z,2.93
2019-04-27T11:38:05.659Z,3.80
2019-04-27T11:40:31.881Z,4.23
2019-04-27T11:42:58.208Z,4.10
2019-04-27T11:45:24.465Z,4.97
2019-04-27T11:47:51.589Z,4.17
2019-04-27T11:50:19.211Z,4.03
2019-04-27T11:52:45.757Z,4.07
2019-04-27T11:55:12.664Z,4.43
2019-04-27T11:57:38.897Z,4.83
2019-04-27T12:00:08.614Z,4.13
2019-04-27T12:02:35.799Z,4.40
2019-04-27T12:05:07.953Z,4.03
2019-04-27T12:07:34.337Z,3.97
2019-04-27T12:10:00.512Z,4.57
2019-04-27T12:12:26.704Z,4.40
2019-04-27T12:14:52.976Z,3.90
2019-04-27T12:17:19.154Z,4.20
2019-04-27T12:19:46.462Z,4.33
2019-04-27T12:22:12.742Z,3.53
2019-04-27T12:24:38.928Z,4.63
2019-04-27T12:27:22.168Z,4.77
2019-04-27T12:30:06.616Z,4.97
2019-04-27T12:32:32.922Z,4.67
2019-04-27T12:34:59.096Z,5.20
2019-04-27T12:37:26.836Z,4.80
2019-04-27T12:39:55.455Z,4.40
2019-04-27T12:42:22.335Z,7.73
2019-04-27T12:44:48.490Z,4.70
2019-04-27T12:47:16.351Z,4.20
2019-04-27T12:49:42.688Z,4.50
2019-04-27T12:52:08.934Z,4.90
2019-04-27T12:54:37.027Z,4.57
2019-04-27T12:59:56.594Z,4.30
2019-04-27T13:02:24.948Z,4.43
2019-04-27T13:04:51.131Z,4.33
2019-04-27T13:07:17.336Z,4.53
2019-04-27T13:09:43.574Z,4.80
2019-04-27T13:12:09.761Z,4.53
2019-04-27T13:14:36.535Z,5.17
2019-04-27T13:17:03.032Z,4.93
2019-04-27T13:19:29.352Z,5.13
2019-04-27T13:21:55.942Z,4.70
2019-04-27T13:24:22.308Z,4.43
2019-04-27T13:26:48.466Z,5.63
2019-04-27T13:29:16.517Z,4.93
2019-04-27T13:31:42.743Z,4.90
2019-04-27T13:34:08.918Z,5.23
2019-04-27T13:36:36.647Z,4.63
2019-04-27T13:39:06.332Z,4.83
2019-04-27T13:41:32.985Z,4.43
2019-04-27T13:43:59.461Z,5.07
2019-04-27T13:49:37.816Z,4.93
2019-04-27T13:52:08.502Z,5.07
2019-04-27T13:54:34.660Z,4.67
2019-04-27T13:57:00.883Z,4.57
2019-04-27T13:59:27.064Z,4.63
2019-04-27T14:01:53.352Z,5.10
2019-04-27T14:04:19.575Z,5.00
2019-04-27T14:06:45.749Z,4.70
2019-04-27T14:09:12.745Z,4.90
2019-04-27T14:11:39.623Z,5.20
2019-04-27T14:14:05.800Z,5.00
2019-04-27T14:16:31.978Z,5.17
2019-04-27T14:18:59.437Z,4.90
2019-04-27T14:21:25.846Z,5.27
2019-04-27T14:23:52.011Z,4.70
2019-04-27T14:26:18.498Z,5.03
2019-04-27T14:28:45.018Z,4.80
2019-04-27T14:31:11.194Z,5.37
2019-04-27T14:33:39.618Z,4.63
2019-04-27T14:36:05.495Z,4.97
2019-04-27T14:38:31.682Z,4.20
2019-04-27T14:40:59.386Z,4.47
2019-04-27T14:43:25.861Z,5.40
2019-04-27T14:45:52.139Z,5.40
2019-04-27T14:48:18.597Z,5.10
2019-04-27T14:50:44.937Z,5.30
2019-04-27T14:53:11.159Z,6.27
2019-04-27T14:55:38.819Z,6.43
2019-04-27T14:58:05.360Z,4.43
2019-04-27T15:00:31.519Z,6.70
2019-04-27T15:02:59.144Z,5.67
2019-04-27T15:05:27.195Z,6.33
2019-04-27T15:07:54.645Z,6.07
2019-04-27T15:10:21.072Z,5.03
2019-04-27T15:12:47.461Z,4.93
2019-04-27T15:15:13.823Z,5.67
2019-04-27T15:17:40.239Z,5.27
2019-04-27T15:20:22.650Z,5.07
2019-04-27T15:22:56.742Z,6.70
2019-04-27T15:25:20.119Z,5.57
2019-04-27T15:27:50.096Z,5.50
2019-04-27T15:30:19.049Z,4.37
2019-04-27T15:32:52.991Z,4.70
2019-04-27T15:35:21.637Z,5.33
2019-04-27T15:37:49.948Z,4.80
2019-04-27T15:40:34.397Z,4.70
2019-04-27T15:43:02.498Z,4.43
2019-04-27T15:45:28.753Z,5.37
2019-04-27T15:47:55.021Z,5.03
2019-04-27T15:50:23.419Z,4.70
2019-04-27T15:52:49.399Z,5.13
2019-04-27T15:55:32.216Z,4.87
2019-04-27T15:57:48.758Z,6.47
2019-04-27T16:00:20.381Z,4.97
2019-04-27T16:02:49.304Z,4.60
2019-04-27T16:05:13.277Z,4.67
2019-04-27T16:07:39.440Z,5.70
2019-04-27T16:10:05.868Z,5.50
2019-04-27T16:12:34.534Z,5.03
2019-04-27T16:15:00.101Z,5.63
2019-04-27T16:17:28.647Z,4.93
2019-04-27T16:19:54.482Z,5.33
2019-04-27T16:22:22.615Z,5.33
2019-04-27T16:24:49.484Z,5.23
2019-04-27T16:27:18.076Z,5.30
2019-04-27T16:29:45.069Z,4.90
2019-04-27T16:32:11.559Z,4.97
2019-04-27T16:34:41.112Z,4.83
2019-04-27T16:37:05.829Z,5.17
2019-04-27T16:39:32.020Z,4.10
2019-04-27T16:41:58.778Z,3.77
2019-04-27T16:44:25.158Z,4.27
2019-04-27T16:46:51.455Z,4.37
2019-04-27T16:49:18.796Z,4.60
2019-04-27T16:51:45.125Z,4.30
2019-04-27T16:54:17.691Z,4.20
2019-04-27T16:56:39.524Z,4.17
2019-04-27T16:59:34.003Z,3.80
2019-04-27T17:01:33.995Z,4.67
2019-04-27T17:04:00.165Z,4.50
2019-04-27T17:06:29.537Z,5.07
2019-04-27T17:08:57.480Z,4.33
2019-04-27T17:11:24.178Z,4.53
2019-04-27T17:13:54.180Z,4.50
2019-04-27T17:16:24.613Z,4.63
2019-04-27T17:18:57.726Z,4.63
2019-04-27T17:21:23.498Z,4.27
2019-04-27T17:23:49.731Z,4.40
2019-04-27T17:26:21.893Z,4.57
2019-04-27T17:29:02.307Z,4.37
2019-04-27T17:31:30.373Z,4.80
2019-04-27T17:33:58.676Z,4.10
2019-04-27T17:36:26.579Z,4.07
2019-04-27T17:38:52.734Z,4.60
2019-04-27T17:41:19.507Z,4.60
2019-04-27T17:43:45.717Z,4.60
2019-04-27T17:46:13.210Z,5.67
2019-04-27T17:48:39.548Z,4.67
2019-04-27T17:51:06.055Z,4.20
2019-04-27T17:53:33.220Z,4.00
2019-04-27T17:56:05.663Z,3.97
2019-04-27T17:58:28.699Z,4.23
2019-04-27T18:00:55.039Z,4.40
2019-04-27T18:03:21.271Z,4.07
2019-04-27T18:05:50.568Z,3.77
2019-04-27T18:08:18.393Z,4.17
2019-04-27T18:10:43.687Z,3.70
2019-04-27T18:13:11.776Z,3.93
2019-04-27T18:15:38.815Z,3.10
2019-04-27T18:18:22.793Z,3.40
2019-04-27T18:20:50.020Z,3.37
2019-04-27T18:23:18.543Z,2.90
2019-04-27T18:25:52.640Z,2.70
2019-04-27T18:28:20.731Z,2.80
2019-04-27T18:31:00.663Z,2.90
2019-04-27T18:33:28.409Z,3.40
2019-04-27T18:35:58.911Z,3.20
2019-04-27T18:38:22.710Z,3.67
2019-04-27T18:40:48.888Z,4.27
2019-04-27T18:43:15.041Z,4.10
2019-04-27T18:45:44.900Z,4.03
2019-04-27T18:51:01.447Z,3.90
2019-04-27T18:53:29.502Z,5.23
2019-04-27T18:55:58.422Z,4.30
2019-04-27T18:58:23.765Z,4.30
2019-04-27T19:00:50.023Z,4.53
2019-04-27T19:03:16.193Z,4.13
2019-04-27T19:05:42.409Z,3.87
2019-04-27T19:08:09.076Z,4.53
2019-04-27T19:10:35.236Z,4.47
2019-04-27T19:13:01.450Z,4.56
2019-04-27T19:15:28.531Z,4.37
2019-04-27T19:17:54.905Z,4.10
2019-04-27T19:20:21.350Z,4.93
2019-04-27T19:22:49.034Z,5.63
2019-04-27T19:25:18.322Z,4.83
2019-04-27T19:28:03.007Z,4.97
2019-04-27T19:30:33.598Z,4.33
2019-04-27T19:32:59.896Z,3.53
2019-04-27T19:35:26.081Z,4.40
2019-04-27T19:37:52.266Z,4.13
2019-04-27T19:40:18.740Z,4.10
2019-04-27T19:42:45.026Z,4.27
2019-04-27T19:45:11.208Z,4.10
2019-04-27T19:47:38.388Z,3.50
2019-04-27T19:50:05.675Z,3.57
2019-04-27T19:52:31.837Z,3.77
2019-04-27T19:54:58.542Z,3.43
2019-04-27T19:57:34.898Z,3.60
2019-04-27T19:59:56.111Z,3.10
2019-04-27T20:02:22.392Z,3.60
2019-04-27T20:04:50.571Z,5.20
2019-04-27T20:07:18.184Z,4.57
2019-04-27T20:09:49.991Z,3.70
2019-04-27T20:12:16.522Z,4.07
2019-04-27T20:14:54.682Z,3.53
2019-04-27T20:17:22.365Z,3.23
2019-04-27T20:19:48.879Z,3.43
2019-04-27T20:22:15.032Z,3.33
2019-04-27T20:24:43.999Z,3.40
2019-04-27T20:27:10.901Z,3.80
2019-04-27T20:29:37.293Z,3.53
2019-04-27T20:32:03.589Z,3.60
2019-04-27T20:34:31.065Z,3.37
2019-04-27T20:36:57.308Z,3.37
2019-04-27T20:39:23.517Z,3.37
2019-04-27T20:41:51.137Z,3.10
2019-04-27T20:44:17.470Z,3.10
2019-04-27T20:46:43.767Z,3.27
2019-04-27T20:49:14.696Z,3.80
2019-04-27T20:52:00.962Z,3.43
2019-04-27T20:54:27.265Z,3.93
2019-04-27T20:56:59.197Z,2.97
2019-04-27T20:59:25.416Z,4.00
2019-04-27T21:01:51.670Z,3.40
2019-04-27T21:04:20.962Z,3.60
2019-04-27T21:06:51.869Z,3.37
2019-04-27T21:09:18.628Z,3.30
2019-04-27T21:11:45.915Z,3.50
2019-04-27T21:14:12.499Z,3.30
2019-04-27T21:16:38.653Z,3.57
2019-04-27T21:19:05.092Z,3.00
2019-04-27T21:21:31.529Z,3.40
2019-04-27T21:23:57.679Z,4.30
2019-04-27T21:26:23.957Z,4.53
2019-04-27T21:28:51.342Z,3.40
2019-04-27T21:31:17.726Z,3.30
2019-04-27T21:33:43.878Z,3.63
2019-04-27T21:36:11.706Z,3.30
2019-04-27T21:38:38.143Z,4.00
2019-04-27T21:41:04.315Z,3.47
2019-04-27T21:43:30.540Z,3.77
2019-04-27T21:45:56.692Z,3.60
2019-04-27T21:48:22.857Z,2.97
2019-04-27T21:50:49.079Z,2.77
2019-04-27T21:53:21.173Z,3.00
2019-04-27T21:55:50.749Z,3.87
2019-04-27T21:58:28.387Z,3.03
2019-04-27T22:00:47.457Z,5.23
2019-04-27T22:03:15.511Z,3.07
2019-04-27T22:05:41.876Z,2.33
2019-04-27T22:08:08.115Z,2.30
2019-04-27T22:10:34.417Z,3.10
2019-04-27T22:13:01.813Z,2.00
2019-04-27T22:15:28.175Z,2.53
2019-04-27T22:17:54.335Z,2.80
2019-04-27T22:20:20.855Z,2.30
2019-04-27T22:22:48.935Z,2.67
2019-04-27T22:25:15.194Z,2.47
2019-04-27T22:27:41.517Z,2.10
2019-04-27T22:30:08.063Z,2.00
2019-04-27T22:32:34.261Z,2.10
2019-04-27T22:35:00.471Z,2.10
2019-04-27T22:37:26.623Z,2.43
2019-04-27T22:40:03.465Z,1.77
2019-04-27T22:42:41.560Z,2.33
2019-04-27T22:45:09.803Z,1.80
2019-04-27T22:47:35.957Z,2.77
2019-04-27T22:50:04.140Z,2.47
2019-04-27T22:52:30.805Z,2.73
2019-04-27T22:54:57.129Z,3.10
2019-04-27T22:57:25.202Z,4.20
2019-04-27T22:59:59.176Z,5.17
2019-04-27T23:02:31.725Z,5.73
2019-04-27T23:05:01.767Z,4.87
2019-04-27T23:07:27.875Z,5.23
2019-04-27T23:09:54.023Z,4.50
2019-04-27T23:12:21.337Z,3.50
2019-04-27T23:14:48.399Z,3.47
2019-04-27T23:17:34.624Z,4.07
2019-04-27T23:20:01.502Z,4.00
2019-04-27T23:22:27.798Z,3.67
2019-04-27T23:24:54.053Z,3.50
2019-04-27T23:27:21.593Z,3.10
2019-04-27T23:29:47.928Z,3.50
2019-04-27T23:32:18.748Z,3.20
2019-04-27T23:34:44.927Z,2.83
2019-04-27T23:37:11.107Z,3.37
2019-04-27T23:39:37.260Z,2.90
2019-04-27T23:42:06.818Z,3.03
2019-04-27T23:44:31.530Z,3.30
2019-04-27T23:46:57.683Z,2.93
2019-04-27T23:49:23.900Z,3.00
2019-04-27T23:51:51.979Z,2.70
2019-04-27T23:54:18.135Z,2.37
2019-04-27T23:56:44.438Z,2.60
2019-04-27T23:59:23.840Z,2.80
